Corinth, Kentucky
Current Conditions -  °F | °C
As of 2:53 AM on Thursday 27 Nov 2014 (Local Time) from KFFT Reporting Station
Overcast Overcast  
Wind Chill: 28°   Ceiling: 4800
Heat Index: 33°   Visibility: 9mi
Dew Point: 26°   Wind: 6mph
Humidity: 75%   Direction: 360°N
Pressure: 30.06"   Gusts: NA
Location:  38.5°N, 84.56°W
Report Text: KFFT 270753Z AUTO 36005KT 9SM SCT037 OVC048 01/M03 A3006 RMK AO2 SLP185 T00061033
Loading
Personal Weather Stations






























Interactive Weather Map New forecast layout! Learn more

10-Day Weather Forecast

Advertisements
Track Severe Weather on mobile